sensor_id;sensor_type;location;lat;lon;timestamp;pressure;altitude;pressure_sealevel;temperature;humidity
13235;BME280;6683;48.506;9.050;2023-05-14T00:02:37;98069.28;;;14.56;69.63
13235;BME280;6683;48.506;9.050;2023-05-14T00:05:41;98062.34;;;14.55;69.83
13235;BME280;6683;48.506;9.050;2023-05-14T00:08:43;98063.16;;;14.56;69.92
13235;BME280;6683;48.506;9.050;2023-05-14T00:11:45;98073.19;;;14.54;69.91
13235;BME280;6683;48.506;9.050;2023-05-14T00:14:48;98067.47;;;14.50;69.95
13235;BME280;6683;48.506;9.050;2023-05-14T00:17:50;98070.13;;;14.50;70.16
13235;BME280;6683;48.506;9.050;2023-05-14T00:20:54;98072.00;;;14.50;70.35
13235;BME280;6683;48.506;9.050;2023-05-14T00:23:57;98063.22;;;14.49;70.23
13235;BME280;6683;48.506;9.050;2023-05-14T00:26:59;98053.41;;;14.50;70.45
13235;BME280;6683;48.506;9.050;2023-05-14T00:30:03;98045.63;;;14.48;70.45
13235;BME280;6683;48.506;9.050;2023-05-14T00:33:06;98047.28;;;14.49;70.40
13235;BME280;6683;48.506;9.050;2023-05-14T00:36:10;98040.53;;;14.47;70.53
13235;BME280;6683;48.506;9.050;2023-05-14T00:39:13;98045.84;;;14.47;70.36
13235;BME280;6683;48.506;9.050;2023-05-14T00:42:16;98045.03;;;14.46;70.39
13235;BME280;6683;48.506;9.050;2023-05-14T00:45:18;98047.69;;;14.46;70.32
13235;BME280;6683;48.506;9.050;2023-05-14T00:48:22;98035.66;;;14.43;70.47
13235;BME280;6683;48.506;9.050;2023-05-14T00:51:27;98034.03;;;14.43;70.50
13235;BME280;6683;48.506;9.050;2023-05-14T00:54:30;98040.16;;;14.43;70.46
13235;BME280;6683;48.506;9.050;2023-05-14T00:57:32;98032.38;;;14.41;70.49
13235;BME280;6683;48.506;9.050;2023-05-14T01:00:36;98026.28;;;14.41;70.60
13235;BME280;6683;48.506;9.050;2023-05-14T01:03:38;98025.47;;;14.40;70.43
13235;BME280;6683;48.506;9.050;2023-05-14T01:06:52;98023.03;;;14.39;70.62
13235;BME280;6683;48.506;9.050;2023-05-14T01:10:02;98018.75;;;14.38;70.18
13235;BME280;6683;48.506;9.050;2023-05-14T01:13:12;98017.13;;;14.37;70.56
13235;BME280;6683;48.506;9.050;2023-05-14T01:16:18;98015.72;;;14.34;70.66
13235;BME280;6683;48.506;9.050;2023-05-14T01:19:33;98010.63;;;14.33;70.59
13235;BME280;6683;48.506;9.050;2023-05-14T01:22:38;98011.63;;;14.32;70.49
13235;BME280;6683;48.506;9.050;2023-05-14T01:25:40;98015.31;;;14.31;70.31
13235;BME280;6683;48.506;9.050;2023-05-14T01:28:44;98023.06;;;14.32;70.23
13235;BME280;6683;48.506;9.050;2023-05-14T01:31:49;98014.28;;;14.32;70.76
13235;BME280;6683;48.506;9.050;2023-05-14T01:34:52;98010.00;;;14.31;70.95
13235;BME280;6683;48.506;9.050;2023-05-14T01:38:01;98011.03;;;14.30;70.86
13235;BME280;6683;48.506;9.050;2023-05-14T01:41:04;98002.25;;;14.29;70.55
13235;BME280;6683;48.506;9.050;2023-05-14T01:44:08;98003.69;;;14.25;70.63
13235;BME280;6683;48.506;9.050;2023-05-14T01:47:10;98005.72;;;14.23;70.68
13235;BME280;6683;48.506;9.050;2023-05-14T01:50:13;98006.78;;;14.22;70.98
13235;BME280;6683;48.506;9.050;2023-05-14T01:53:17;98003.31;;;14.22;70.88
13235;BME280;6683;48.506;9.050;2023-05-14T01:56:21;98004.31;;;14.21;70.89
13235;BME280;6683;48.506;9.050;2023-05-14T01:59:25;98008.38;;;14.23;70.99
13235;BME280;6683;48.506;9.050;2023-05-14T02:02:29;98005.94;;;14.22;70.88
13235;BME280;6683;48.506;9.050;2023-05-14T02:05:32;98006.19;;;14.20;70.98
13235;BME280;6683;48.506;9.050;2023-05-14T02:08:35;98005.94;;;14.22;70.95
13235;BME280;6683;48.506;9.050;2023-05-14T02:11:38;98001.66;;;14.21;71.02
13235;BME280;6683;48.506;9.050;2023-05-14T02:14:40;98005.94;;;14.22;70.92
13235;BME280;6683;48.506;9.050;2023-05-14T02:17:42;98004.31;;;14.21;71.09
13235;BME280;6683;48.506;9.050;2023-05-14T02:20:45;98004.53;;;14.19;71.13
13235;BME280;6683;48.506;9.050;2023-05-14T02:23:50;98003.13;;;14.17;71.02
13235;BME280;6683;48.506;9.050;2023-05-14T02:26:52;97995.59;;;14.14;70.96
13235;BME280;6683;48.506;9.050;2023-05-14T02:29:55;97997.44;;;14.13;71.01
13235;BME280;6683;48.506;9.050;2023-05-14T02:33:00;98000.31;;;14.12;71.17
13235;BME280;6683;48.506;9.050;2023-05-14T02:36:03;98006.41;;;14.12;71.01
13235;BME280;6683;48.506;9.050;2023-05-14T02:39:06;98005.63;;;14.12;71.08
13235;BME280;6683;48.506;9.050;2023-05-14T02:42:09;98014.38;;;14.12;71.05
13235;BME280;6683;48.506;9.050;2023-05-14T02:45:11;98005.63;;;14.12;71.13
13235;BME280;6683;48.506;9.050;2023-05-14T02:48:14;98010.09;;;14.11;71.13
13235;BME280;6683;48.506;9.050;2023-05-14T02:51:18;98009.88;;;14.13;70.97
13235;BME280;6683;48.506;9.050;2023-05-14T02:54:22;98012.53;;;14.13;71.10
13235;BME280;6683;48.506;9.050;2023-05-14T02:57:24;98007.00;;;14.14;71.28
13235;BME280;6683;48.506;9.050;2023-05-14T03:00:26;98010.25;;;14.16;71.25
13235;BME280;6683;48.506;9.050;2023-05-14T03:03:29;98011.31;;;14.15;71.32
13235;BME280;6683;48.506;9.050;2023-05-14T03:06:32;98012.91;;;14.16;71.02
13235;BME280;6683;48.506;9.050;2023-05-14T03:09:36;98016.19;;;14.18;71.24
13235;BME280;6683;48.506;9.050;2023-05-14T03:12:38;98013.53;;;14.18;71.09
13235;BME280;6683;48.506;9.050;2023-05-14T03:15:41;98013.31;;;14.20;71.29
13235;BME280;6683;48.506;9.050;2023-05-14T03:18:43;98008.84;;;14.20;71.43
13235;BME280;6683;48.506;9.050;2023-05-14T03:21:46;98006.19;;;14.20;71.40
13235;BME280;6683;48.506;9.050;2023-05-14T03:24:51;98011.03;;;14.23;71.46
13235;BME280;6683;48.506;9.050;2023-05-14T03:27:53;98007.97;;;14.26;71.16
13235;BME280;6683;48.506;9.050;2023-05-14T03:30:56;98001.63;;;14.27;71.34
13235;BME280;6683;48.506;9.050;2023-05-14T03:33:58;98007.56;;;14.29;71.40
13235;BME280;6683;48.506;9.050;2023-05-14T03:37:01;98009.19;;;14.30;70.94
13235;BME280;6683;48.506;9.050;2023-05-14T03:40:07;98006.53;;;14.30;71.37
13235;BME280;6683;48.506;9.050;2023-05-14T03:43:09;98015.09;;;14.32;71.29
13235;BME280;6683;48.506;9.050;2023-05-14T03:46:12;98007.97;;;14.33;71.46
13235;BME280;6683;48.506;9.050;2023-05-14T03:49:14;98012.00;;;14.35;71.15
13235;BME280;6683;48.506;9.050;2023-05-14T03:52:17;98010.78;;;14.38;71.46
13235;BME280;6683;48.506;9.050;2023-05-14T03:55:22;98015.06;;;14.39;71.44
13235;BME280;6683;48.506;9.050;2023-05-14T03:58:24;98013.00;;;14.41;71.30
13235;BME280;6683;48.506;9.050;2023-05-14T04:01:27;98013.81;;;14.41;71.01
13235;BME280;6683;48.506;9.050;2023-05-14T04:04:30;98010.94;;;14.43;71.35
13235;BME280;6683;48.506;9.050;2023-05-14T04:07:32;98006.44;;;14.43;71.43
13235;BME280;6683;48.506;9.050;2023-05-14T04:10:36;98001.75;;;14.46;71.29
13235;BME280;6683;48.506;9.050;2023-05-14T04:13:39;98004.19;;;14.47;71.28
13235;BME280;6683;48.506;9.050;2023-05-14T04:16:41;97997.22;;;14.46;71.26
13235;BME280;6683;48.506;9.050;2023-05-14T04:19:44;98011.09;;;14.48;71.39
13235;BME280;6683;48.506;9.050;2023-05-14T04:22:46;97998.66;;;14.49;71.52
13235;BME280;6683;48.506;9.050;2023-05-14T04:25:49;98003.13;;;14.48;71.32
13235;BME280;6683;48.506;9.050;2023-05-14T04:28:52;97990.91;;;14.47;71.69
13235;BME280;6683;48.506;9.050;2023-05-14T04:31:55;97994.16;;;14.49;71.66
13235;BME280;6683;48.506;9.050;2023-05-14T04:34:57;97997.03;;;14.48;71.74
13235;BME280;6683;48.506;9.050;2023-05-14T04:37:59;97999.03;;;14.52;71.78
13235;BME280;6683;48.506;9.050;2023-05-14T04:41:04;97999.84;;;14.53;71.62
13235;BME280;6683;48.506;9.050;2023-05-14T04:44:07;98000.44;;;14.55;71.65
13235;BME280;6683;48.506;9.050;2023-05-14T04:47:09;97989.59;;;14.56;71.68
13235;BME280;6683;48.506;9.050;2023-05-14T04:50:12;97998.97;;;14.59;71.55
13235;BME280;6683;48.506;9.050;2023-05-14T04:53:14;97992.41;;;14.61;71.85
13235;BME280;6683;48.506;9.050;2023-05-14T04:56:18;97995.69;;;14.63;71.85
13235;BME280;6683;48.506;9.050;2023-05-14T04:59:21;97997.69;;;14.68;71.70
13235;BME280;6683;48.506;9.050;2023-05-14T05:02:23;97999.09;;;14.70;71.70
13235;BME280;6683;48.506;9.050;2023-05-14T05:05:26;98000.47;;;14.73;71.62
13235;BME280;6683;48.506;9.050;2023-05-14T05:08:28;97997.63;;;14.74;71.52
13235;BME280;6683;48.506;9.050;2023-05-14T05:11:32;98000.66;;;14.78;71.71
13235;BME280;6683;48.506;9.050;2023-05-14T05:14:34;97999.03;;;14.77;71.33
13235;BME280;6683;48.506;9.050;2023-05-14T05:17:36;97997.41;;;14.76;71.53
13235;BME280;6683;48.506;9.050;2023-05-14T05:20:39;98001.25;;;14.80;71.67
13235;BME280;6683;48.506;9.050;2023-05-14T05:23:41;98000.00;;;14.82;71.81
13235;BME280;6683;48.506;9.050;2023-05-14T05:26:45;97989.38;;;14.82;71.68
13235;BME280;6683;48.506;9.050;2023-05-14T05:29:50;97990.34;;;14.88;71.75
13235;BME280;6683;48.506;9.050;2023-05-14T05:32:52;97991.16;;;14.88;71.90
13235;BME280;6683;48.506;9.050;2023-05-14T05:35:56;97996.06;;;14.91;71.78
13235;BME280;6683;48.506;9.050;2023-05-14T05:38:59;97996.84;;;14.92;71.82
13235;BME280;6683;48.506;9.050;2023-05-14T05:42:05;98004.03;;;14.91;71.89
13235;BME280;6683;48.506;9.050;2023-05-14T05:45:09;97999.31;;;14.93;71.95
13235;BME280;6683;48.506;9.050;2023-05-14T05:48:11;97996.44;;;14.95;71.96
13235;BME280;6683;48.506;9.050;2023-05-14T05:51:14;97995.19;;;14.97;72.16
13235;BME280;6683;48.506;9.050;2023-05-14T05:54:16;97998.56;;;15.04;71.87
13235;BME280;6683;48.506;9.050;2023-05-14T05:57:20;97988.53;;;15.06;71.79
13235;BME280;6683;48.506;9.050;2023-05-14T06:00:23;97993.19;;;15.11;71.98
13235;BME280;6683;48.506;9.050;2023-05-14T06:03:26;97992.53;;;15.15;71.71
13235;BME280;6683;48.506;9.050;2023-05-14T06:06:29;97989.66;;;15.17;71.66
13235;BME280;6683;48.506;9.050;2023-05-14T06:09:33;97996.59;;;15.18;71.88
13235;BME280;6683;48.506;9.050;2023-05-14T06:12:37;97999.03;;;15.19;71.67
13235;BME280;6683;48.506;9.050;2023-05-14T06:15:40;97994.78;;;15.18;71.61
13235;BME280;6683;48.506;9.050;2023-05-14T06:18:43;97990.25;;;15.19;71.54
13235;BME280;6683;48.506;9.050;2023-05-14T06:21:46;97999.19;;;15.25;71.79
13235;BME280;6683;48.506;9.050;2023-05-14T06:24:48;97996.31;;;15.26;71.56
13235;BME280;6683;48.506;9.050;2023-05-14T06:27:55;98004.88;;;15.28;71.70
13235;BME280;6683;48.506;9.050;2023-05-14T06:30:58;98000.97;;;15.31;71.51
13235;BME280;6683;48.506;9.050;2023-05-14T06:34:00;98002.00;;;15.30;71.53
13235;BME280;6683;48.506;9.050;2023-05-14T06:37:05;97999.94;;;15.32;71.68
13235;BME280;6683;48.506;9.050;2023-05-14T06:40:11;98000.75;;;15.32;71.76
13235;BME280;6683;48.506;9.050;2023-05-14T06:43:16;98004.81;;;15.35;71.48
13235;BME280;6683;48.506;9.050;2023-05-14T06:46:19;97996.38;;;15.38;71.61
13235;BME280;6683;48.506;9.050;2023-05-14T06:49:21;97997.56;;;15.42;71.71
13235;BME280;6683;48.506;9.050;2023-05-14T06:52:26;97997.97;;;15.45;71.55
13235;BME280;6683;48.506;9.050;2023-05-14T06:55:29;97999.59;;;15.46;71.62
13235;BME280;6683;48.506;9.050;2023-05-14T06:58:33;98006.69;;;15.52;71.54
13235;BME280;6683;48.506;9.050;2023-05-14T07:01:53;98001.16;;;15.54;71.59
13235;BME280;6683;48.506;9.050;2023-05-14T07:04:55;97997.00;;;15.58;71.58
13235;BME280;6683;48.506;9.050;2023-05-14T07:07:57;97998.44;;;15.60;71.55
13235;BME280;6683;48.506;9.050;2023-05-14T07:11:00;98002.03;;;15.66;71.45
13235;BME280;6683;48.506;9.050;2023-05-14T07:14:04;97999.72;;;15.69;71.57
13235;BME280;6683;48.506;9.050;2023-05-14T07:17:07;97998.03;;;15.75;71.33
13235;BME280;6683;48.506;9.050;2023-05-14T07:20:12;97992.50;;;15.76;71.24
13235;BME280;6683;48.506;9.050;2023-05-14T07:23:14;97996.31;;;15.80;71.37
13235;BME280;6683;48.506;9.050;2023-05-14T07:26:16;97993.78;;;15.85;71.18
13235;BME280;6683;48.506;9.050;2023-05-14T07:29:20;97988.47;;;15.85;71.33
13235;BME280;6683;48.506;9.050;2023-05-14T07:32:22;97983.88;;;15.92;71.32
13235;BME280;6683;48.506;9.050;2023-05-14T07:35:25;97986.09;;;15.95;71.20
13235;BME280;6683;48.506;9.050;2023-05-14T07:38:28;97984.03;;;15.97;71.04
13235;BME280;6683;48.506;9.050;2023-05-14T07:41:30;97990.97;;;15.98;70.97
13235;BME280;6683;48.506;9.050;2023-05-14T07:44:34;97987.03;;;16.01;70.85
13235;BME280;6683;48.506;9.050;2023-05-14T07:47:37;97992.13;;;16.02;70.92
13235;BME280;6683;48.506;9.050;2023-05-14T07:50:41;97982.28;;;16.03;70.63
13235;BME280;6683;48.506;9.050;2023-05-14T07:53:43;97985.97;;;16.02;70.71
13235;BME280;6683;48.506;9.050;2023-05-14T07:56:45;97983.56;;;16.00;70.64
13235;BME280;6683;48.506;9.050;2023-05-14T07:59:49;97980.31;;;15.98;70.69
13235;BME280;6683;48.506;9.050;2023-05-14T08:02:51;97986.22;;;16.00;70.57
13235;BME280;6683;48.506;9.050;2023-05-14T08:05:54;97982.97;;;15.98;70.55
13235;BME280;6683;48.506;9.050;2023-05-14T08:08:56;97987.03;;;16.01;70.69
13235;BME280;6683;48.506;9.050;2023-05-14T08:11:59;97989.25;;;16.04;70.78
13235;BME280;6683;48.506;9.050;2023-05-14T08:15:04;97982.88;;;16.05;70.82
13235;BME280;6683;48.506;9.050;2023-05-14T08:18:08;97986.13;;;16.07;70.70
13235;BME280;6683;48.506;9.050;2023-05-14T08:21:11;97977.72;;;16.10;70.66
13235;BME280;6683;48.506;9.050;2023-05-14T08:24:13;97981.53;;;16.14;70.71
13235;BME280;6683;48.506;9.050;2023-05-14T08:27:16;97977.13;;;16.20;70.68
13235;BME280;6683;48.506;9.050;2023-05-14T08:30:21;97971.72;;;16.26;70.49
13235;BME280;6683;48.506;9.050;2023-05-14T08:33:23;97975.69;;;16.35;70.79
13235;BME280;6683;48.506;9.050;2023-05-14T08:36:26;97977.53;;;16.46;70.50
13235;BME280;6683;48.506;9.050;2023-05-14T08:39:28;97972.50;;;16.56;70.66
13235;BME280;6683;48.506;9.050;2023-05-14T08:42:31;97970.09;;;16.66;70.52
13235;BME280;6683;48.506;9.050;2023-05-14T08:45:36;97966.28;;;16.74;70.84
13235;BME280;6683;48.506;9.050;2023-05-14T08:48:42;97971.97;;;16.89;70.46
13235;BME280;6683;48.506;9.050;2023-05-14T08:51:48;97971.84;;;17.07;70.38
13235;BME280;6683;48.506;9.050;2023-05-14T08:54:52;97972.19;;;17.22;70.34
13235;BME280;6683;48.506;9.050;2023-05-14T08:57:55;97971.94;;;17.35;69.80
13235;BME280;6683;48.506;9.050;2023-05-14T09:00:59;97964.59;;;17.42;69.99
13235;BME280;6683;48.506;9.050;2023-05-14T09:04:02;97962.66;;;17.49;69.80
13235;BME280;6683;48.506;9.050;2023-05-14T09:07:08;97967.63;;;17.58;69.67
13235;BME280;6683;48.506;9.050;2023-05-14T09:10:11;97960.28;;;17.65;69.58
13235;BME280;6683;48.506;9.050;2023-05-14T09:13:15;97973.00;;;17.74;69.45
13235;BME280;6683;48.506;9.050;2023-05-14T09:16:19;97961.13;;;17.82;69.22
13235;BME280;6683;48.506;9.050;2023-05-14T09:19:22;97958.69;;;17.92;69.01
13235;BME280;6683;48.506;9.050;2023-05-14T09:22:28;97957.38;;;17.94;68.95
13235;BME280;6683;48.506;9.050;2023-05-14T09:25:32;97964.44;;;18.00;68.86
13235;BME280;6683;48.506;9.050;2023-05-14T09:28:34;97955.56;;;18.11;68.59
13235;BME280;6683;48.506;9.050;2023-05-14T09:31:44;97947.97;;;18.20;68.30
13235;BME280;6683;48.506;9.050;2023-05-14T09:34:46;97944.28;;;18.38;68.26
13235;BME280;6683;48.506;9.050;2023-05-14T09:37:51;97942.78;;;18.58;68.44
13235;BME280;6683;48.506;9.050;2023-05-14T09:40:54;97935.63;;;18.80;68.08
13235;BME280;6683;48.506;9.050;2023-05-14T09:43:57;97935.41;;;19.03;67.58
13235;BME280;6683;48.506;9.050;2023-05-14T09:47:03;97937.19;;;19.14;67.03
13235;BME280;6683;48.506;9.050;2023-05-14T09:50:07;97924.97;;;19.24;67.24
13235;BME280;6683;48.506;9.050;2023-05-14T09:53:10;97932.81;;;19.47;66.87
13235;BME280;6683;48.506;9.050;2023-05-14T09:56:12;97933.00;;;19.62;66.79
13235;BME280;6683;48.506;9.050;2023-05-14T09:59:16;97926.00;;;19.82;66.35
13235;BME280;6683;48.506;9.050;2023-05-14T10:02:24;97920.03;;;20.02;65.87
13235;BME280;6683;48.506;9.050;2023-05-14T10:05:27;97920.91;;;20.08;64.75
13235;BME280;6683;48.506;9.050;2023-05-14T10:08:33;97918.78;;;20.10;64.53
13235;BME280;6683;48.506;9.050;2023-05-14T10:11:39;97919.63;;;20.15;64.34
13235;BME280;6683;48.506;9.050;2023-05-14T10:14:47;97911.16;;;20.23;64.01
13235;BME280;6683;48.506;9.050;2023-05-14T10:17:57;97919.28;;;20.33;63.57
13235;BME280;6683;48.506;9.050;2023-05-14T10:21:04;97919.66;;;20.47;63.44
13235;BME280;6683;48.506;9.050;2023-05-14T10:24:09;97912.25;;;20.59;62.93
13235;BME280;6683;48.506;9.050;2023-05-14T10:27:12;97909.09;;;20.67;62.53
13235;BME280;6683;48.506;9.050;2023-05-14T10:30:20;97907.53;;;20.76;62.35
13235;BME280;6683;48.506;9.050;2023-05-14T10:33:25;97901.50;;;21.01;62.19
13235;BME280;6683;48.506;9.050;2023-05-14T10:36:28;97896.88;;;21.33;62.05
13235;BME280;6683;48.506;9.050;2023-05-14T10:39:42;97895.13;;;21.69;61.60
13235;BME280;6683;48.506;9.050;2023-05-14T10:42:45;97889.59;;;22.00;60.62
13235;BME280;6683;48.506;9.050;2023-05-14T10:45:48;97893.13;;;22.31;59.83
13235;BME280;6683;48.506;9.050;2023-05-14T10:48:52;97885.63;;;22.63;59.70
13235;BME280;6683;48.506;9.050;2023-05-14T10:51:54;97877.19;;;22.95;58.98
13235;BME280;6683;48.506;9.050;2023-05-14T10:54:58;97876.00;;;23.31;58.30
13235;BME280;6683;48.506;9.050;2023-05-14T10:58:03;97872.41;;;23.61;57.49
13235;BME280;6683;48.506;9.050;2023-05-14T11:01:07;97872.56;;;23.79;57.09
13235;BME280;6683;48.506;9.050;2023-05-14T11:04:17;97868.28;;;24.17;55.91
13235;BME280;6683;48.506;9.050;2023-05-14T11:07:24;97852.72;;;24.09;55.34
13235;BME280;6683;48.506;9.050;2023-05-14T11:10:28;97859.00;;;23.95;54.81
13235;BME280;6683;48.506;9.050;2023-05-14T11:13:31;97851.84;;;24.14;54.31
13235;BME280;6683;48.506;9.050;2023-05-14T11:16:34;97846.44;;;24.19;53.63
13235;BME280;6683;48.506;9.050;2023-05-14T11:19:38;97842.16;;;24.13;53.30
13235;BME280;6683;48.506;9.050;2023-05-14T11:22:44;97840.88;;;24.00;53.03
13235;BME280;6683;48.506;9.050;2023-05-14T11:25:47;97839.91;;;23.86;53.53
13235;BME280;6683;48.506;9.050;2023-05-14T11:28:50;97842.25;;;23.54;53.49
13235;BME280;6683;48.506;9.050;2023-05-14T11:31:53;97835.38;;;23.18;53.90
13235;BME280;6683;48.506;9.050;2023-05-14T11:34:57;97826.63;;;22.87;54.11
13235;BME280;6683;48.506;9.050;2023-05-14T11:38:00;97826.63;;;22.87;54.47
13235;BME280;6683;48.506;9.050;2023-05-14T11:41:02;97829.59;;;22.90;54.29
13235;BME280;6683;48.506;9.050;2023-05-14T11:44:05;97825.75;;;23.01;54.01
13235;BME280;6683;48.506;9.050;2023-05-14T11:47:08;97821.38;;;23.21;53.73
13235;BME280;6683;48.506;9.050;2023-05-14T11:50:12;97824.81;;;23.41;53.54
13235;BME280;6683;48.506;9.050;2023-05-14T11:53:18;97815.53;;;23.57;53.03
13235;BME280;6683;48.506;9.050;2023-05-14T11:56:21;97811.53;;;23.55;52.70
13235;BME280;6683;48.506;9.050;2023-05-14T11:59:24;97807.28;;;23.44;52.35
13235;BME280;6683;48.506;9.050;2023-05-14T12:02:27;97804.06;;;23.37;52.61
13235;BME280;6683;48.506;9.050;2023-05-14T12:05:31;97809.50;;;23.27;52.36
13235;BME280;6683;48.506;9.050;2023-05-14T12:08:34;97800.41;;;23.13;52.45
13235;BME280;6683;48.506;9.050;2023-05-14T12:11:37;97797.75;;;23.02;52.46
13235;BME280;6683;48.506;9.050;2023-05-14T12:14:41;97792.63;;;23.01;52.33
13235;BME280;6683;48.506;9.050;2023-05-14T12:17:49;97787.00;;;23.02;52.46
13235;BME280;6683;48.506;9.050;2023-05-14T12:20:54;97781.31;;;23.04;52.29
13235;BME280;6683;48.506;9.050;2023-05-14T12:23:58;97780.50;;;23.09;52.46
13235;BME280;6683;48.506;9.050;2023-05-14T12:27:01;97772.97;;;23.11;52.11
13235;BME280;6683;48.506;9.050;2023-05-14T12:30:06;97777.22;;;23.22;51.91
13235;BME280;6683;48.506;9.050;2023-05-14T12:33:09;97771.50;;;23.38;51.83
13235;BME280;6683;48.506;9.050;2023-05-14T12:36:13;97773.31;;;23.48;51.71
13235;BME280;6683;48.506;9.050;2023-05-14T12:39:17;97765.22;;;23.48;51.25
13235;BME280;6683;48.506;9.050;2023-05-14T12:42:19;97752.34;;;23.40;51.31
13235;BME280;6683;48.506;9.050;2023-05-14T12:45:22;97753.72;;;23.32;51.13
13235;BME280;6683;48.506;9.050;2023-05-14T12:48:24;97754.88;;;23.21;51.22
13235;BME280;6683;48.506;9.050;2023-05-14T12:51:28;97748.91;;;23.24;51.53
13235;BME280;6683;48.506;9.050;2023-05-14T12:54:30;97751.75;;;23.48;51.04
13235;BME280;6683;48.506;9.050;2023-05-14T12:57:33;97736.13;;;23.50;51.00
13235;BME280;6683;48.506;9.050;2023-05-14T13:00:36;97740.22;;;23.42;51.00
13235;BME280;6683;48.506;9.050;2023-05-14T13:03:38;97734.31;;;23.30;50.83
13235;BME280;6683;48.506;9.050;2023-05-14T13:06:42;97735.75;;;23.18;51.05
13235;BME280;6683;48.506;9.050;2023-05-14T13:09:45;97737.97;;;23.05;51.24
13235;BME280;6683;48.506;9.050;2023-05-14T13:12:48;97733.75;;;22.94;50.68
13235;BME280;6683;48.506;9.050;2023-05-14T13:15:52;97730.81;;;22.86;51.09
13235;BME280;6683;48.506;9.050;2023-05-14T13:18:55;97736.50;;;22.74;50.99
13235;BME280;6683;48.506;9.050;2023-05-14T13:21:59;97741.94;;;22.54;51.21
13235;BME280;6683;48.506;9.050;2023-05-14T13:25:02;97738.22;;;22.35;51.26
13235;BME280;6683;48.506;9.050;2023-05-14T13:28:04;97740.94;;;22.15;52.22
13235;BME280;6683;48.506;9.050;2023-05-14T13:31:09;97746.31;;;21.95;52.67
13235;BME280;6683;48.506;9.050;2023-05-14T13:34:12;97739.88;;;21.76;53.45
13235;BME280;6683;48.506;9.050;2023-05-14T13:37:16;97735.00;;;21.68;53.78
13235;BME280;6683;48.506;9.050;2023-05-14T13:40:18;97731.53;;;21.67;54.36
13235;BME280;6683;48.506;9.050;2023-05-14T13:43:20;97716.50;;;21.66;54.33
13235;BME280;6683;48.506;9.050;2023-05-14T13:46:22;97715.66;;;21.66;54.42
13235;BME280;6683;48.506;9.050;2023-05-14T13:49:25;97711.66;;;21.68;54.12
13235;BME280;6683;48.506;9.050;2023-05-14T13:52:29;97706.00;;;21.75;54.32
13235;BME280;6683;48.506;9.050;2023-05-14T13:55:31;97708.19;;;21.83;54.14
13235;BME280;6683;48.506;9.050;2023-05-14T13:58:34;97703.34;;;21.90;53.54
13235;BME280;6683;48.506;9.050;2023-05-14T14:01:36;97702.25;;;21.96;53.67
13235;BME280;6683;48.506;9.050;2023-05-14T14:04:39;97699.28;;;22.12;53.51
13235;BME280;6683;48.506;9.050;2023-05-14T14:07:42;97710.56;;;22.19;53.71
13235;BME280;6683;48.506;9.050;2023-05-14T14:10:45;97704.16;;;22.00;53.93
13235;BME280;6683;48.506;9.050;2023-05-14T14:13:48;97710.31;;;21.81;54.41
13235;BME280;6683;48.506;9.050;2023-05-14T14:16:50;97712.19;;;21.65;54.92
13235;BME280;6683;48.506;9.050;2023-05-14T14:19:53;97716.22;;;21.53;55.24
13235;BME280;6683;48.506;9.050;2023-05-14T14:22:57;97712.44;;;21.38;56.11
13235;BME280;6683;48.506;9.050;2023-05-14T14:25:59;97710.56;;;21.29;56.39
13235;BME280;6683;48.506;9.050;2023-05-14T14:29:02;97705.41;;;21.17;56.71
13235;BME280;6683;48.506;9.050;2023-05-14T14:32:05;97710.53;;;21.09;57.09
13235;BME280;6683;48.506;9.050;2023-05-14T14:35:08;97714.47;;;21.01;57.28
13235;BME280;6683;48.506;9.050;2023-05-14T14:38:12;97710.19;;;20.90;57.59
13235;BME280;6683;48.506;9.050;2023-05-14T14:41:15;97703.94;;;20.75;58.25
13235;BME280;6683;48.506;9.050;2023-05-14T14:44:18;97710.31;;;20.58;58.29
13235;BME280;6683;48.506;9.050;2023-05-14T14:47:20;97712.66;;;20.40;58.35
13235;BME280;6683;48.506;9.050;2023-05-14T14:50:23;97715.50;;;20.23;59.24
13235;BME280;6683;48.506;9.050;2023-05-14T14:53:26;97719.94;;;20.08;59.20
13235;BME280;6683;48.506;9.050;2023-05-14T14:56:29;97717.41;;;19.91;59.80
13235;BME280;6683;48.506;9.050;2023-05-14T14:59:34;97722.97;;;19.79;60.01
13235;BME280;6683;48.506;9.050;2023-05-14T15:02:37;97712.69;;;19.71;60.30
13235;BME280;6683;48.506;9.050;2023-05-14T15:05:41;97715.84;;;19.63;60.39
13235;BME280;6683;48.506;9.050;2023-05-14T15:08:46;97716.03;;;19.52;60.37
13235;BME280;6683;48.506;9.050;2023-05-14T15:11:48;97715.13;;;19.41;60.69
13235;BME280;6683;48.506;9.050;2023-05-14T15:14:51;97710.03;;;19.40;60.89
13235;BME280;6683;48.506;9.050;2023-05-14T15:17:54;97710.53;;;19.37;60.90
13235;BME280;6683;48.506;9.050;2023-05-14T15:20:56;97706.72;;;19.33;61.11
13235;BME280;6683;48.506;9.050;2023-05-14T15:24:02;97709.88;;;19.30;61.72
13235;BME280;6683;48.506;9.050;2023-05-14T15:27:05;97706.97;;;19.31;61.75
13235;BME280;6683;48.506;9.050;2023-05-14T15:30:09;97716.06;;;19.30;61.66
13235;BME280;6683;48.506;9.050;2023-05-14T15:33:11;97711.78;;;19.29;61.75
13235;BME280;6683;48.506;9.050;2023-05-14T15:36:17;97720.38;;;19.31;62.04
13235;BME280;6683;48.506;9.050;2023-05-14T15:39:21;97705.88;;;19.27;61.71
13235;BME280;6683;48.506;9.050;2023-05-14T15:42:23;97708.78;;;19.26;61.82
13235;BME280;6683;48.506;9.050;2023-05-14T15:45:26;97709.81;;;19.20;62.11
13235;BME280;6683;48.506;9.050;2023-05-14T15:48:29;97712.75;;;19.18;62.25
13235;BME280;6683;48.506;9.050;2023-05-14T15:51:31;97714.84;;;19.16;62.50
13235;BME280;6683;48.506;9.050;2023-05-14T15:54:36;97713.50;;;19.13;62.52
13235;BME280;6683;48.506;9.050;2023-05-14T15:57:38;97709.44;;;19.11;62.51
13235;BME280;6683;48.506;9.050;2023-05-14T16:00:41;97706.47;;;19.07;62.67
13235;BME280;6683;48.506;9.050;2023-05-14T16:03:43;97705.63;;;19.02;62.44
13235;BME280;6683;48.506;9.050;2023-05-14T16:06:46;97701.88;;;19.03;62.89
13235;BME280;6683;48.506;9.050;2023-05-14T16:09:50;97697.59;;;19.02;62.66
13235;BME280;6683;48.506;9.050;2023-05-14T16:12:52;97704.00;;;19.01;62.74
13235;BME280;6683;48.506;9.050;2023-05-14T16:15:55;97699.72;;;19.00;62.47
13235;BME280;6683;48.506;9.050;2023-05-14T16:18:59;97704.50;;;18.98;62.48
13235;BME280;6683;48.506;9.050;2023-05-14T16:22:01;97710.06;;;18.91;62.67
13235;BME280;6683;48.506;9.050;2023-05-14T16:25:06;97714.22;;;18.82;62.55